Sea Dolphin C — V7XL9 — position and weather

sailwx.info

Track history (hours):
 
Tides and Currents Weather Stations Pressure Air Temp Water Temp Dewpoint Dewpoint Depression Visibility Wind Speed Wind Dir Waves Ship Positions

Sea Dolphin C

Last reported at 2017-Apr-27 22:39 UTC. Time now 2017-May-24 03:56 UTC.
Position N 09°31' W 079°50'.
Warning: this ship's position is 26 days out of date.

Length 181 m; draft 9.4 m.

Type: Cargo ship. MMSI: 538004513.

Date/timePositionNaut miles runAvg speedWind from/ knotsBaromVisibWave heightAir tempDewpointWater temp
2017-Apr-27 22:39N 09°31' W 079°50'212.2
2017-Apr-27 22:30N 09°30' W 079°51'510.8
2017-Apr-27 22:00N 09°25' W 079°55'5 9.3
2017-Apr-27 21:30N 09°21' W 079°55'3 5.8
2017-Apr-27 21:00N 09°18' W 079°55'1 2.8
2017-Apr-27 20:30N 09°17' W 079°55'0 0.5
2017-Apr-27 20:00N 09°16' W 079°55'0 0.6
2017-Apr-27 19:30N 09°16' W 079°55'0 0.3
2017-Apr-27 19:00N 09°16' W 079°55'1 1.4
2017-Apr-27 18:30N 09°15' W 079°55'2 3.5
2017-Apr-27 17:57N 09°13' W 079°55'3 6.4
2017-Apr-27 17:29N 09°11' W 079°53'  
Track history (hours):
 
Tides and Currents Weather Stations Pressure Air Temp Water Temp Dewpoint Dewpoint Depression Visibility Wind Speed Wind Dir Waves Ship Positions

Sea Dolphin C

Last reported at 2017-Apr-27 22:39 UTC. Time now 2017-May-24 03:56 UTC.
Position N 09°31' W 079°50'.
Warning: this ship's position is 26 days out of date.

Length 181 m; draft 9.4 m.

Type: Cargo ship. MMSI: 538004513.

Date/timePositionNaut miles runAvg speedWind from/ knotsBaromVisibWave heightAir tempDewpointWater temp
2017-Apr-27 22:39N 09°31' W 079°50'212.2
2017-Apr-27 22:30N 09°30' W 079°51'510.8
2017-Apr-27 22:00N 09°25' W 079°55'5 9.3
2017-Apr-27 21:30N 09°21' W 079°55'3 5.8
2017-Apr-27 21:00N 09°18' W 079°55'1 2.8
2017-Apr-27 20:30N 09°17' W 079°55'0 0.5
2017-Apr-27 20:00N 09°16' W 079°55'0 0.6
2017-Apr-27 19:30N 09°16' W 079°55'0 0.3
2017-Apr-27 19:00N 09°16' W 079°55'1 1.4
2017-Apr-27 18:30N 09°15' W 079°55'2 3.5
2017-Apr-27 17:57N 09°13' W 079°55'3 6.4
2017-Apr-27 17:29N 09°11' W 079°53'  

Dump ship's entire track history